Time;durP1;ratioP1;P1;durP2;ratioP2;P2;SDS_P1;SDS_P2;PMS_P1;PMS_P2;Temp;Humidity;BMP_temperature;BMP_pressure;BME280_temperature;BME280_humidity;BME280_pressure;Samples;Min_cycle;Max_cycle;Signal;HPM_P1;HPM_P2
2023/04/24 00:02:10;;;;;;;8.25;6.07;;;;;;;13.36;49.78;94720.31;5024929;28;20426;-76
2023/04/24 00:04:40;;;;;;;8.82;6.13;;;;;;;13.33;49.85;94709.41;5024763;28;20080;-75
2023/04/24 00:07:06;;;;;;;8.70;6.18;;;;;;;13.31;50.72;94709.13;5024709;28;20034;-75
2023/04/24 00:09:32;;;;;;;8.68;6.30;;;;;;;13.31;50.81;94715.41;5025966;28;20052;-75
2023/04/24 00:11:57;;;;;;;11.68;6.07;;;;;;;13.31;50.45;94712.66;5024584;28;20986;-75
2023/04/24 00:14:23;;;;;;;8.73;6.03;;;;;;;13.29;50.54;94712.31;5026552;28;20292;-76
2023/04/24 00:16:49;;;;;;;6.97;5.78;;;;;;;13.26;49.16;94718.78;5026288;28;20064;-75
2023/04/24 00:19:14;;;;;;;9.75;6.65;;;;;;;13.23;49.32;94719.69;5026143;28;20076;-75
2023/04/24 00:21:41;;;;;;;9.13;5.90;;;;;;;13.21;49.45;94727.66;5008079;28;20476;-74
2023/04/24 00:24:08;;;;;;;8.98;6.47;;;;;;;13.18;49.52;94723.78;5008390;28;20029;-75
2023/04/24 00:26:34;;;;;;;9.75;6.90;;;;;;;13.13;49.98;94713.38;5007970;28;20040;-75
2023/04/24 00:28:59;;;;;;;12.80;7.40;;;;;;;13.13;49.60;94718.09;5024496;28;20427;-75
2023/04/24 00:31:25;;;;;;;9.77;6.78;;;;;;;13.10;49.44;94710.75;5025689;28;20029;-75
2023/04/24 00:33:50;;;;;;;10.23;7.05;;;;;;;13.09;48.91;94710.00;5024270;28;20480;-74
2023/04/24 00:36:16;;;;;;;8.45;6.45;;;;;;;13.06;49.22;94708.13;5027409;28;20082;-74
2023/04/24 00:38:41;;;;;;;10.77;6.32;;;;;;;13.05;48.86;94714.88;5025358;28;20056;-76
2023/04/24 00:41:07;;;;;;;9.90;6.47;;;;;;;13.04;49.34;94710.59;5024425;28;20053;-75
2023/04/24 00:43:32;;;;;;;9.70;6.30;;;;;;;13.02;49.25;94708.31;5024113;28;20354;-75
2023/04/24 00:45:59;;;;;;;8.10;5.82;;;;;;;13.02;49.44;94694.50;5024464;28;20490;-76
2023/04/24 00:48:25;;;;;;;11.43;5.90;;;;;;;13.01;49.79;94703.22;5023869;28;20033;-76
2023/04/24 00:50:50;;;;;;;10.32;6.18;;;;;;;13.03;49.41;94709.84;5023745;28;20047;-76
2023/04/24 00:53:15;;;;;;;6.80;5.82;;;;;;;13.02;49.27;94700.03;5024952;28;20033;-75
2023/04/24 00:55:41;;;;;;;11.52;5.97;;;;;;;13.03;49.35;94712.59;5024038;28;20021;-75
2023/04/24 00:58:06;;;;;;;9.18;6.22;;;;;;;13.05;49.43;94709.38;5023968;28;20037;-75
2023/04/24 01:00:32;;;;;;;8.15;5.57;;;;;;;13.06;49.31;94710.13;5023820;28;20038;-75
2023/04/24 01:02:59;;;;;;;7.35;6.32;;;;;;;13.02;49.29;94711.06;5023822;28;20029;-75
2023/04/24 01:05:25;;;;;;;6.60;5.82;;;;;;;13.05;49.48;94703.84;5025161;28;20113;-76
2023/04/24 01:07:51;;;;;;;7.70;6.00;;;;;;;13.03;49.43;94698.81;5023941;28;20025;-76
2023/04/24 01:10:17;;;;;;;14.07;6.47;;;;;;;13.07;50.61;94686.81;5024822;28;20030;-76
2023/04/24 01:12:42;;;;;;;8.55;6.30;;;;;;;13.04;51.02;94688.53;5023649;28;20021;-76
2023/04/24 01:15:08;;;;;;;10.18;7.45;;;;;;;13.02;51.75;94691.75;5024549;28;20029;-75
2023/04/24 01:17:34;;;;;;;9.85;6.82;;;;;;;13.01;51.86;94689.44;5023582;28;20040;-76
2023/04/24 01:20:00;;;;;;;12.55;6.95;;;;;;;12.99;50.56;94687.13;5009941;28;20017;-75
2023/04/24 01:22:26;;;;;;;8.48;6.30;;;;;;;12.96;50.40;94685.31;5024772;28;20025;-76
2023/04/24 01:24:52;;;;;;;8.32;6.63;;;;;;;12.91;49.97;94680.41;5023699;28;20041;-75
2023/04/24 01:27:19;;;;;;;8.75;6.18;;;;;;;12.92;49.78;94686.69;5022989;28;20096;-76
2023/04/24 01:29:44;;;;;;;7.63;6.20;;;;;;;12.90;49.33;94678.06;5024706;28;20022;-76
2023/04/24 01:32:10;;;;;;;9.13;7.32;;;;;;;12.86;49.14;94674.72;5025543;28;20014;-76
2023/04/24 01:34:36;;;;;;;9.65;6.63;;;;;;;12.83;49.39;94676.38;5023383;28;20091;-76
2023/04/24 01:37:01;;;;;;;9.88;6.72;;;;;;;12.82;49.66;94674.09;5024734;28;20026;-76
2023/04/24 01:39:28;;;;;;;9.95;6.43;;;;;;;12.74;49.91;94688.19;5023085;28;20032;-76
2023/04/24 01:41:54;;;;;;;9.27;6.97;;;;;;;12.70;50.04;94675.75;5025199;28;20033;-76
2023/04/24 01:44:20;;;;;;;9.60;7.30;;;;;;;12.68;50.92;94672.69;5023085;28;20060;-76
2023/04/24 01:46:45;;;;;;;11.65;7.80;;;;;;;12.64;51.30;94667.31;5023510;28;20021;-76
2023/04/24 01:49:11;;;;;;;9.48;7.50;;;;;;;12.62;51.81;94669.00;5022682;28;20036;-76
2023/04/24 01:51:36;;;;;;;8.45;7.15;;;;;;;12.53;51.32;94661.47;5023179;28;20352;-76
2023/04/24 01:54:02;;;;;;;12.70;8.00;;;;;;;12.51;51.37;94668.69;5006723;28;20136;-76
2023/04/24 01:56:33;;;;;;;11.98;8.43;;;;;;;12.45;52.22;94661.00;5022938;28;20030;-76
2023/04/24 01:58:59;;;;;;;10.70;6.97;;;;;;;12.38;50.08;94666.00;5023285;28;20059;-77
2023/04/24 02:01:25;;;;;;;10.90;6.88;;;;;;;12.36;51.07;94677.50;5022847;28;20060;-77
2023/04/24 02:03:50;;;;;;;10.23;7.82;;;;;;;12.32;51.42;94667.84;5023591;28;20018;-76
2023/04/24 02:06:16;;;;;;;10.27;7.38;;;;;;;12.27;51.59;94660.94;5023865;28;20030;-75
2023/04/24 02:08:41;;;;;;;9.57;7.38;;;;;;;12.25;52.01;94671.66;5024226;28;20029;-74
2023/04/24 02:11:09;;;;;;;8.70;7.10;;;;;;;12.23;51.26;94674.09;5023023;28;20116;-77
2023/04/24 02:13:34;;;;;;;11.05;7.60;;;;;;;12.19;51.43;94671.47;5022806;28;20026;-75
2023/04/24 02:16:00;;;;;;;9.88;7.68;;;;;;;12.17;51.78;94673.91;5023197;28;20459;-74
2023/04/24 02:18:25;;;;;;;10.90;7.80;;;;;;;12.11;51.86;94669.47;5024093;28;20052;-74
2023/04/24 02:20:50;;;;;;;10.82;7.85;;;;;;;12.06;52.90;94659.03;5024711;28;20025;-77
2023/04/24 02:23:16;;;;;;;11.85;8.02;;;;;;;12.06;52.85;94670.06;5022539;28;20033;-77
2023/04/24 02:25:41;;;;;;;9.75;8.13;;;;;;;12.02;52.72;94666.66;5009529;28;20052;-76
2023/04/24 02:28:07;;;;;;;10.52;7.65;;;;;;;11.99;52.95;94656.56;5023047;28;20079;-76
2023/04/24 02:30:32;;;;;;;11.60;7.38;;;;;;;11.98;53.09;94657.75;5024235;28;20152;-77
2023/04/24 02:32:57;;;;;;;11.18;7.20;;;;;;;11.96;53.36;94658.22;5022813;28;20025;-76
2023/04/24 02:35:23;;;;;;;13.25;8.23;;;;;;;11.95;53.60;94653.94;5024279;28;20029;-77
2023/04/24 02:37:48;;;;;;;9.82;8.30;;;;;;;11.93;53.86;94648.13;5024286;28;20030;-76
2023/04/24 02:40:14;;;;;;;10.75;7.93;;;;;;;11.88;53.25;94634.94;5022877;28;20025;-76
2023/04/24 02:42:39;;;;;;;9.90;8.13;;;;;;;11.87;52.78;94642.44;5023986;28;20416;-76
2023/04/24 02:45:05;;;;;;;9.15;8.10;;;;;;;11.85;52.94;94638.56;5022601;28;20065;-76
2023/04/24 02:47:31;;;;;;;10.15;7.80;;;;;;;11.81;53.44;94648.91;5022821;28;20060;-76
2023/04/24 02:49:56;;;;;;;16.02;8.27;;;;;;;11.78;53.18;94641.56;5022915;28;20052;-76
2023/04/24 02:52:22;;;;;;;9.80;7.53;;;;;;;11.73;53.22;94636.66;5023732;28;20400;-75
2023/04/24 02:54:47;;;;;;;9.27;7.38;;;;;;;11.72;52.68;94641.41;5022452;28;20025;-76
2023/04/24 02:57:12;;;;;;;11.93;7.65;;;;;;;11.68;52.82;94638.00;5006165;28;20099;-74
2023/04/24 02:59:38;;;;;;;8.05;7.00;;;;;;;11.66;52.74;94648.72;5022565;28;20115;-75
2023/04/24 03:02:05;;;;;;;10.25;7.75;;;;;;;11.64;52.73;94643.66;5024957;28;20112;-75
2023/04/24 03:04:31;;;;;;;10.68;7.10;;;;;;;11.63;52.75;94644.09;5026281;28;20038;-75
2023/04/24 03:06:57;;;;;;;16.27;10.43;;;;;;;11.60;52.50;94642.25;5010566;28;20550;-75
2023/04/24 03:09:22;;;;;;;23.52;15.30;;;;;;;11.53;52.85;94648.78;5009847;28;20029;-76
2023/04/24 03:11:50;;;;;;;23.30;13.70;;;;;;;11.54;52.45;94644.06;5009773;28;20116;-76
2023/04/24 03:14:16;;;;;;;20.73;13.30;;;;;;;11.50;52.67;94652.44;5028047;28;20033;-75
2023/04/24 03:16:43;;;;;;;20.75;14.00;;;;;;;11.49;52.71;94650.13;5010137;28;20064;-76
2023/04/24 03:19:08;;;;;;;16.38;12.05;;;;;;;11.49;52.64;94647.38;5012527;28;20088;-74
2023/04/24 03:21:35;;;;;;;21.52;14.07;;;;;;;11.48;52.76;94656.88;5027673;28;20033;-76
2023/04/24 03:24:01;;;;;;;21.98;13.23;;;;;;;11.46;53.05;94646.28;5009433;28;20039;-76
2023/04/24 03:26:26;;;;;;;18.42;11.30;;;;;;;11.44;52.82;94645.97;5009488;28;20033;-75
2023/04/24 03:28:51;;;;;;;19.58;11.45;;;;;;;11.43;53.00;94639.72;5025463;28;20029;-75
2023/04/24 03:31:17;;;;;;;19.58;12.38;;;;;;;11.46;53.16;94651.78;5027466;28;20033;-75
2023/04/24 03:33:42;;;;;;;23.45;10.93;;;;;;;11.44;53.49;94645.97;5025299;28;20116;-75
2023/04/24 03:36:08;;;;;;;22.15;11.40;;;;;;;11.48;53.74;94656.88;5025257;28;20514;-75
2023/04/24 03:38:33;;;;;;;15.52;10.30;;;;;;;11.47;53.73;94645.09;5025413;28;20037;-75
2023/04/24 03:40:58;;;;;;;21.85;9.85;;;;;;;11.49;53.88;94644.63;5025457;28;20417;-75
2023/04/24 03:43:24;;;;;;;16.20;9.82;;;;;;;11.51;54.15;94642.19;5026898;28;20453;-76
2023/04/24 03:45:50;;;;;;;18.17;9.05;;;;;;;11.50;54.28;94646.94;5026156;28;20029;-76
2023/04/24 03:48:16;;;;;;;14.55;9.55;;;;;;;11.49;54.50;94644.63;5025043;28;20029;-75
2023/04/24 03:50:41;;;;;;;14.90;9.68;;;;;;;11.50;54.78;94655.19;5008328;28;20029;-74
2023/04/24 03:53:07;;;;;;;14.75;9.70;;;;;;;11.49;54.54;94648.16;5025096;28;20025;-76
2023/04/24 03:55:33;;;;;;;15.93;10.65;;;;;;;11.51;54.77;94645.72;5024946;28;20116;-77
2023/04/24 03:57:58;;;;;;;20.65;9.65;;;;;;;11.47;54.60;94644.28;5024852;28;20180;-76
2023/04/24 04:00:24;;;;;;;15.65;9.57;;;;;;;11.53;54.31;94648.78;5026568;28;20052;-76
2023/04/24 04:02:49;;;;;;;18.20;9.75;;;;;;;11.50;54.02;94643.41;5024457;28;20030;-76
2023/04/24 04:05:15;;;;;;;17.60;10.27;;;;;;;11.54;53.62;94642.06;5026194;28;20491;-79
2023/04/24 04:07:41;;;;;;;16.00;9.77;;;;;;;11.55;53.59;94646.34;5007928;28;20551;-75
2023/04/24 04:10:07;;;;;;;15.93;10.70;;;;;;;11.55;53.96;94634.56;5025106;28;20108;-75
2023/04/24 04:12:32;;;;;;;14.60;9.82;;;;;;;11.57;53.81;94643.13;5025808;28;20372;-75
2023/04/24 04:14:58;;;;;;;14.40;9.25;;;;;;;11.60;53.57;94642.25;5024704;28;20022;-75
2023/04/24 04:17:23;;;;;;;20.55;9.80;;;;;;;11.60;53.95;94645.00;5026056;28;20029;-75
2023/04/24 04:19:49;;;;;;;21.23;9.88;;;;;;;11.64;53.91;94646.41;5025523;28;20030;-74
2023/04/24 04:22:14;;;;;;;14.43;9.73;;;;;;;11.69;53.91;94651.31;5026030;28;20113;-74
2023/04/24 04:24:40;;;;;;;14.98;9.40;;;;;;;11.70;53.58;94649.34;5023941;28;20460;-74
2023/04/24 04:27:06;;;;;;;15.02;9.95;;;;;;;11.69;53.88;94651.31;5024212;28;20021;-76
2023/04/24 04:29:32;;;;;;;19.27;11.52;;;;;;;11.71;53.64;94659.13;5024204;28;20275;-74
2023/04/24 04:31:58;;;;;;;20.38;10.32;;;;;;;11.76;53.25;94663.31;5023911;28;20033;-73
2023/04/24 04:34:23;;;;;;;23.88;11.15;;;;;;;11.78;53.09;94663.59;5024405;28;20029;-74
2023/04/24 04:36:50;;;;;;;16.10;9.93;;;;;;;11.80;52.60;94664.69;5009328;28;20408;-74
2023/04/24 04:39:16;;;;;;;22.05;9.77;;;;;;;11.85;53.01;94675.16;5008240;28;20439;-74
2023/04/24 04:41:42;;;;;;;15.07;9.70;;;;;;;11.87;53.25;94671.94;5025284;28;20075;-74
2023/04/24 04:44:08;;;;;;;18.35;10.85;;;;;;;11.92;53.21;94671.34;5024011;28;20037;-75
2023/04/24 04:46:34;;;;;;;17.40;11.20;;;;;;;11.95;52.96;94671.22;5025148;28;20104;-75
2023/04/24 04:49:01;;;;;;;22.38;11.50;;;;;;;11.99;52.59;94679.34;5024995;28;20028;-75
2023/04/24 04:51:26;;;;;;;23.02;10.90;;;;;;;12.01;52.22;94679.66;5023773;28;20021;-75
2023/04/24 04:53:52;;;;;;;24.02;12.40;;;;;;;12.08;52.11;94681.38;5022760;28;20037;-74
2023/04/24 04:56:17;;;;;;;17.38;11.00;;;;;;;12.11;52.15;94683.25;5038057;28;20044;-75
2023/04/24 04:58:43;;;;;;;17.52;11.35;;;;;;;12.09;51.69;94685.66;5032795;28;20021;-74
2023/04/24 05:01:08;;;;;;;16.17;9.55;;;;;;;12.13;51.13;94686.28;5025865;28;20029;-74
2023/04/24 05:03:34;;;;;;;17.17;10.05;;;;;;;12.18;51.33;94689.22;5023301;28;20041;-74
2023/04/24 05:05:59;;;;;;;17.42;9.70;;;;;;;12.21;51.39;94684.78;5023908;28;20051;-73
2023/04/24 05:08:25;;;;;;;13.05;9.50;;;;;;;12.23;51.32;94693.38;5026866;28;20029;-75
2023/04/24 05:10:50;;;;;;;16.88;10.73;;;;;;;12.27;51.18;94685.72;5023388;28;20021;-75
2023/04/24 05:13:16;;;;;;;12.93;10.07;;;;;;;12.30;50.70;94689.59;5023340;28;20141;-75
2023/04/24 05:15:41;;;;;;;19.02;9.55;;;;;;;12.34;50.50;94693.75;5023386;28;20024;-75
2023/04/24 05:18:06;;;;;;;15.25;9.80;;;;;;;12.36;50.18;94680.25;5023581;28;20052;-74
2023/04/24 05:20:32;;;;;;;15.75;9.75;;;;;;;12.38;49.66;94666.78;5006610;28;20064;-75
2023/04/24 05:22:57;;;;;;;15.68;9.57;;;;;;;12.47;49.97;94680.59;5023481;28;20028;-75
2023/04/24 05:25:23;;;;;;;15.25;8.75;;;;;;;12.51;49.88;94680.47;5024197;28;20030;-74
2023/04/24 05:27:48;;;;;;;18.60;10.55;;;;;;;12.52;49.57;94670.97;5023245;28;20021;-75
2023/04/24 05:30:14;;;;;;;17.30;9.65;;;;;;;12.59;49.24;94678.94;5006464;28;20095;-74
2023/04/24 05:32:39;;;;;;;15.15;9.55;;;;;;;12.58;49.38;94679.41;5006639;28;20068;-74
2023/04/24 05:35:05;;;;;;;13.38;9.77;;;;;;;12.57;49.30;94680.63;5006564;28;20021;-74
2023/04/24 05:37:30;;;;;;;10.93;7.63;;;;;;;12.60;47.87;94694.25;5023237;28;20026;-74
2023/04/24 05:39:56;;;;;;;12.23;7.18;;;;;;;12.64;47.58;94688.63;5023315;28;20025;-74
2023/04/24 05:42:21;;;;;;;11.45;7.60;;;;;;;12.66;48.13;94688.91;5024529;28;20036;-74
2023/04/24 05:44:47;;;;;;;11.95;8.35;;;;;;;12.71;48.45;94689.09;5022815;28;20044;-76
2023/04/24 05:47:12;;;;;;;10.88;8.20;;;;;;;12.73;48.07;94686.66;5022919;28;20026;-74
2023/04/24 05:49:38;;;;;;;11.82;7.80;;;;;;;12.77;47.38;94686.50;5022790;28;20022;-75
2023/04/24 05:52:06;;;;;;;12.10;8.43;;;;;;;12.83;47.69;94683.91;5022489;28;20112;-77
2023/04/24 05:54:31;;;;;;;13.32;7.68;;;;;;;12.87;47.18;94679.78;5006768;28;20029;-73
2023/04/24 05:56:58;;;;;;;12.80;7.65;;;;;;;12.87;47.23;94677.00;5006925;28;20088;-75
2023/04/24 05:59:23;;;;;;;10.02;8.20;;;;;;;12.87;47.31;94685.28;5022657;28;20045;-76
2023/04/24 06:01:48;;;;;;;12.13;7.50;;;;;;;12.91;47.12;94685.16;5027610;28;20087;-76
2023/04/24 06:04:14;;;;;;;11.10;7.00;;;;;;;12.98;47.30;94693.88;5006096;28;20045;-76
2023/04/24 06:06:40;;;;;;;10.32;7.45;;;;;;;12.95;46.92;94683.75;5024196;28;20033;-76
2023/04/24 06:09:06;;;;;;;10.80;7.30;;;;;;;13.03;46.56;94693.28;5022647;28;20026;-76
2023/04/24 06:11:31;;;;;;;12.88;7.10;;;;;;;12.98;46.16;94680.09;5023100;28;20854;-76
2023/04/24 06:13:57;;;;;;;10.13;7.43;;;;;;;13.08;46.18;94685.63;5006228;28;20080;-75
2023/04/24 06:16:22;;;;;;;10.75;7.63;;;;;;;13.05;46.37;94678.25;5022437;28;20037;-75
2023/04/24 06:18:48;;;;;;;10.13;7.35;;;;;;;13.13;46.75;94679.47;5024289;28;20017;-77
2023/04/24 06:21:13;;;;;;;10.90;7.68;;;;;;;13.22;46.61;94687.78;5022326;28;20018;-76
2023/04/24 06:23:38;;;;;;;11.80;7.75;;;;;;;13.28;46.33;94683.19;5022595;28;20114;-76
2023/04/24 06:26:05;;;;;;;10.38;7.18;;;;;;;13.35;45.72;94674.59;5022211;28;20026;-75
2023/04/24 06:28:30;;;;;;;12.57;6.70;;;;;;;13.49;45.54;94696.06;5023998;28;20037;-77
2023/04/24 06:30:56;;;;;;;10.10;7.65;;;;;;;13.60;45.66;94692.06;5022805;28;20140;-77
2023/04/24 06:33:21;;;;;;;10.40;6.75;;;;;;;13.68;45.66;94687.75;5022330;28;20025;-77
2023/04/24 06:35:47;;;;;;;13.93;7.80;;;;;;;13.81;45.20;94691.88;5023173;28;20033;-76
2023/04/24 06:38:12;;;;;;;16.38;8.15;;;;;;;13.93;45.16;94690.16;5009567;28;20022;-76
2023/04/24 06:40:37;;;;;;;31.30;15.68;;;;;;;13.91;45.30;94684.34;5027880;28;20041;-77
2023/04/24 06:43:03;;;;;;;19.77;10.23;;;;;;;14.02;45.24;94681.84;5007991;28;20069;-78
2023/04/24 06:45:29;;;;;;;13.63;8.70;;;;;;;14.20;44.46;94683.00;5024755;28;20489;-78
2023/04/24 06:47:55;;;;;;;12.70;8.75;;;;;;;14.33;44.57;94683.56;5009797;28;20049;-78
2023/04/24 06:50:21;;;;;;;14.40;9.38;;;;;;;14.47;44.69;94684.94;5026283;28;20048;-76
2023/04/24 06:52:46;;;;;;;15.27;9.02;;;;;;;14.57;44.26;94687.19;5009523;28;20026;-76
2023/04/24 06:55:12;;;;;;;15.10;8.40;;;;;;;14.65;43.64;94684.06;5031919;28;20023;-78
2023/04/24 06:57:37;;;;;;;14.95;9.35;;;;;;;14.67;43.54;94678.81;4994152;28;20037;-78
2023/04/24 07:00:05;;;;;;;14.02;8.90;;;;;;;14.78;43.70;94671.53;5025778;28;20443;-77
2023/04/24 07:02:30;;;;;;;12.70;8.40;;;;;;;14.66;43.62;94669.75;5025985;28;20916;-77
2023/04/24 07:04:56;;;;;;;12.70;8.07;;;;;;;14.47;43.45;94657.28;5025698;28;20113;-77
2023/04/24 07:07:23;;;;;;;11.55;8.75;;;;;;;14.67;43.65;94676.81;5025712;28;20465;-77
2023/04/24 07:09:50;;;;;;;14.82;8.40;;;;;;;14.80;43.61;94671.84;5025964;28;20499;-78
2023/04/24 07:12:16;;;;;;;11.95;7.53;;;;;;;14.95;43.46;94660.81;5025620;28;20033;-77
2023/04/24 07:14:45;;;;;;;15.90;8.35;;;;;;;15.04;43.79;94668.31;5027277;28;20369;-77
2023/04/24 07:17:13;;;;;;;11.23;7.82;;;;;;;15.19;43.39;94660.03;5025605;28;20029;-77
2023/04/24 07:19:38;;;;;;;12.07;7.13;;;;;;;15.18;43.38;94662.03;5025629;28;20087;-77
2023/04/24 07:22:03;;;;;;;11.40;7.15;;;;;;;15.27;42.72;94655.66;5025562;28;20048;-78
2023/04/24 07:24:31;;;;;;;11.15;7.53;;;;;;;15.28;42.97;94659.97;5008702;28;20030;-78
2023/04/24 07:26:57;;;;;;;10.73;7.95;;;;;;;15.25;42.90;94647.06;5025521;28;20064;-77
2023/04/24 07:29:23;;;;;;;11.25;8.23;;;;;;;15.49;42.68;94647.03;5008834;28;20061;-77
2023/04/24 07:31:48;;;;;;;15.55;8.57;;;;;;;15.49;42.95;94658.09;5027344;28;20424;-76
2023/04/24 07:34:13;;;;;;;14.30;8.05;;;;;;;15.54;42.77;94643.56;5025499;28;20480;-78
2023/04/24 07:36:39;;;;;;;14.10;7.95;;;;;;;15.74;42.62;94645.72;5009255;28;20042;-78
2023/04/24 07:39:05;;;;;;;12.82;8.07;;;;;;;15.73;42.82;94655.28;5025114;28;20067;-78
2023/04/24 07:41:31;;;;;;;11.50;7.80;;;;;;;15.85;42.83;94648.69;5025364;28;20500;-78
2023/04/24 07:43:56;;;;;;;10.65;7.47;;;;;;;15.96;42.53;94648.88;5025184;28;20032;-77
2023/04/24 07:46:23;;;;;;;10.20;6.80;;;;;;;16.09;41.78;94651.34;5008344;28;20545;-77
2023/04/24 07:48:48;;;;;;;10.20;8.25;;;;;;;16.17;42.15;94655.25;5028138;28;20018;-77
2023/04/24 07:51:14;;;;;;;11.25;8.82;;;;;;;16.25;42.17;94648.06;5027908;28;20121;-76
2023/04/24 07:53:40;;;;;;;10.20;7.93;;;;;;;16.39;42.10;94629.88;5008668;28;20026;-77
2023/04/24 07:56:06;;;;;;;12.60;6.97;;;;;;;16.63;41.03;94641.59;5024815;28;20021;-77
2023/04/24 07:58:31;;;;;;;8.85;7.10;;;;;;;16.73;40.55;94645.75;5026375;28;20439;-78
2023/04/24 08:00:57;;;;;;;7.78;5.78;;;;;;;16.81;39.95;94642.59;5024811;28;20044;-77
2023/04/24 08:03:22;;;;;;;12.18;6.78;;;;;;;16.85;40.54;94635.56;5025124;28;20026;-78
2023/04/24 08:05:47;;;;;;;8.05;6.68;;;;;;;17.04;40.24;94636.09;5024571;28;20025;-78
2023/04/24 08:08:13;;;;;;;12.73;7.00;;;;;;;17.14;40.03;94640.22;5024819;28;20030;-78
2023/04/24 08:10:39;;;;;;;13.50;7.97;;;;;;;17.22;39.60;94630.22;5026105;28;20056;-77
2023/04/24 08:13:05;;;;;;;7.70;6.80;;;;;;;17.23;39.85;94625.44;5007868;28;20026;-78
2023/04/24 08:15:30;;;;;;;7.32;6.25;;;;;;;17.46;39.29;94618.88;5026213;28;20408;-78
2023/04/24 08:17:57;;;;;;;9.63;6.55;;;;;;;17.65;39.03;94624.09;5025833;28;20167;-78
2023/04/24 08:20:22;;;;;;;7.75;6.68;;;;;;;17.80;38.94;94624.03;5008147;28;20025;-78
2023/04/24 08:22:48;;;;;;;11.00;7.57;;;;;;;17.92;39.31;94625.66;5025538;28;20017;-78
2023/04/24 08:25:14;;;;;;;9.93;7.43;;;;;;;18.17;38.82;94619.28;5024092;28;20037;-78
2023/04/24 08:27:39;;;;;;;9.05;7.38;;;;;;;18.34;38.56;94613.81;5025265;28;20087;-78
2023/04/24 08:30:06;;;;;;;11.57;6.30;;;;;;;18.37;38.06;94617.66;5024562;28;20026;-78
2023/04/24 08:32:32;;;;;;;8.18;6.30;;;;;;;18.56;37.50;94608.41;5024523;28;20026;-78
2023/04/24 08:34:58;;;;;;;10.75;7.20;;;;;;;18.66;37.47;94614.53;5024079;28;20389;-78
2023/04/24 08:37:25;;;;;;;13.43;6.43;;;;;;;18.92;37.20;94602.53;5008131;28;20025;-77
2023/04/24 08:39:50;;;;;;;9.18;7.10;;;;;;;19.09;36.55;94597.78;5007333;28;20083;-77
2023/04/24 08:42:17;;;;;;;10.00;6.00;;;;;;;19.15;36.86;94598.56;5007650;28;20029;-77
2023/04/24 08:44:43;;;;;;;8.70;7.18;;;;;;;19.39;36.71;94591.84;5028676;28;20040;-77
2023/04/24 08:47:10;;;;;;;11.75;7.05;;;;;;;19.55;36.10;94589.06;5025431;28;20032;-78
2023/04/24 08:49:37;;;;;;;11.48;6.95;;;;;;;19.77;35.74;94585.56;5023971;28;20065;-77
2023/04/24 08:52:03;;;;;;;10.73;6.72;;;;;;;20.05;35.41;94587.63;5007070;28;20056;-77
2023/04/24 08:54:29;;;;;;;8.73;6.03;;;;;;;20.06;35.04;94589.13;5007732;28;20021;-78
2023/04/24 08:57:01;;;;;;;8.00;6.22;;;;;;;20.39;34.50;94575.16;5023572;28;20022;-77
2023/04/24 08:59:28;;;;;;;12.25;7.18;;;;;;;20.52;34.25;94582.25;5006981;28;20519;-78
2023/04/24 09:01:54;;;;;;;7.00;5.72;;;;;;;20.77;33.56;94569.28;5006919;28;20036;-78
2023/04/24 09:04:21;;;;;;;10.07;5.95;;;;;;;21.09;33.23;94567.59;5023801;28;20029;-77
2023/04/24 09:06:49;;;;;;;10.80;6.75;;;;;;;21.29;33.14;94558.16;5023566;28;20368;-77
2023/04/24 09:09:16;;;;;;;8.35;5.70;;;;;;;21.52;32.44;94560.81;5024836;28;20484;-77
2023/04/24 09:11:41;;;;;;;9.32;6.00;;;;;;;21.65;32.54;94556.13;5023739;28;20103;-77
2023/04/24 09:14:09;;;;;;;8.38;5.95;;;;;;;21.80;32.25;94555.78;5022747;28;20025;-77
2023/04/24 09:16:34;;;;;;;7.72;6.07;;;;;;;21.98;32.05;94549.53;5023916;28;20030;-77
2023/04/24 09:19:00;;;;;;;6.40;5.47;;;;;;;22.09;31.96;94545.88;5023132;28;20055;-77
2023/04/24 09:21:33;;;;;;;11.95;7.15;;;;;;;22.54;31.66;94542.69;5024532;28;20028;-77
2023/04/24 09:24:04;;;;;;;10.27;5.53;;;;;;;22.55;30.99;94532.25;5022980;28;20068;-78
2023/04/24 09:26:33;;;;;;;13.13;6.07;;;;;;;22.83;30.53;94535.50;5023201;28;20030;-77
2023/04/24 09:28:59;;;;;;;9.40;5.57;;;;;;;23.14;29.71;94536.16;5007318;28;20488;-77
2023/04/24 09:31:27;;;;;;;7.38;5.47;;;;;;;23.27;29.75;94539.03;5022845;28;20108;-78
2023/04/24 09:33:56;;;;;;;9.63;5.85;;;;;;;23.44;29.20;94533.19;5022842;28;20110;-78
2023/04/24 09:36:33;;;;;;;9.43;5.50;;;;;;;23.60;29.16;94526.59;5024205;28;20095;-78
2023/04/24 09:39:02;;;;;;;9.15;5.40;;;;;;;23.77;28.88;94529.91;5011982;28;20148;-76
2023/04/24 09:41:31;;;;;;;9.73;5.55;;;;;;;23.83;28.37;94529.84;5023029;28;20029;-78
2023/04/24 09:43:56;;;;;;;9.15;6.55;;;;;;;24.07;28.63;94528.94;5006582;28;20033;-78
2023/04/24 09:46:30;;;;;;;8.27;5.78;;;;;;;24.12;28.28;94530.88;5023171;28;20034;-78
2023/04/24 09:48:55;;;;;;;11.05;5.82;;;;;;;24.34;28.03;94521.31;5006130;28;20120;-78
2023/04/24 09:51:34;;;;;;;8.20;5.25;;;;;;;24.67;27.46;94528.41;5006358;28;20080;-78
2023/04/24 09:53:59;;;;;;;10.45;4.80;;;;;;;24.80;26.79;94522.78;5006035;28;20049;-78
2023/04/24 09:56:26;;;;;;;8.70;4.78;;;;;;;24.99;26.55;94517.03;5024311;28;20543;-76
2023/04/24 09:58:51;;;;;;;7.95;5.10;;;;;;;25.13;26.64;94515.00;5023742;28;20072;-79
2023/04/24 10:01:30;;;;;;;7.13;4.95;;;;;;;25.41;26.48;94508.78;5006268;28;20496;-78
2023/04/24 10:03:55;;;;;;;7.30;4.63;;;;;;;25.53;26.24;94512.84;5022425;28;20107;-78
2023/04/24 10:06:21;;;;;;;6.95;4.53;;;;;;;25.86;26.09;94497.25;5022162;28;20455;-78
2023/04/24 10:08:48;;;;;;;7.63;4.30;;;;;;;25.74;25.72;94500.88;5022729;28;20030;-78
2023/04/24 10:11:13;;;;;;;5.75;4.65;;;;;;;25.67;25.75;94491.78;5023255;28;20174;-79
2023/04/24 10:13:40;;;;;;;6.93;4.70;;;;;;;25.89;25.11;94489.78;5026131;28;20033;-76
2023/04/24 10:16:07;;;;;;;6.28;4.40;;;;;;;25.88;25.81;94491.84;5026614;28;20124;-78
2023/04/24 10:18:32;;;;;;;7.28;4.43;;;;;;;26.15;25.25;94481.19;5026486;28;20022;-77
2023/04/24 10:21:00;;;;;;;8.02;4.88;;;;;;;26.31;24.83;94470.00;5010488;28;20080;-78
2023/04/24 10:23:25;;;;;;;9.57;4.68;;;;;;;26.35;24.90;94479.63;5027574;28;20034;-77
2023/04/24 10:25:51;;;;;;;5.60;4.32;;;;;;;26.64;24.58;94474.78;5026573;28;20090;-78
2023/04/24 10:28:18;;;;;;;7.32;4.70;;;;;;;26.56;24.97;94459.91;5009332;28;20044;-78
2023/04/24 10:30:43;;;;;;;8.65;5.30;;;;;;;26.86;24.06;94467.75;5026427;28;20029;-77
2023/04/24 10:33:08;;;;;;;7.05;4.45;;;;;;;26.61;24.42;94456.16;5032660;28;20167;-78
2023/04/24 10:35:37;;;;;;;8.40;4.47;;;;;;;26.51;24.14;94463.63;5009719;28;20068;-77
2023/04/24 10:38:13;;;;;;;8.43;4.57;;;;;;;26.28;24.05;94463.44;5026541;28;20029;-77
2023/04/24 10:40:38;;;;;;;6.03;4.75;;;;;;;26.17;24.03;94456.03;5026096;28;20049;-77
2023/04/24 10:43:09;;;;;;;9.48;4.03;;;;;;;26.07;24.68;94449.38;5009601;28;20065;-77
2023/04/24 10:45:35;;;;;;;7.30;4.28;;;;;;;26.42;24.23;94445.13;5025911;28;20040;-78
2023/04/24 10:48:10;;;;;;;6.70;3.90;;;;;;;26.09;24.80;94452.41;5009132;28;20021;-78
2023/04/24 10:51:02;;;;;;;5.32;3.83;;;;;;;25.83;24.58;94458.94;5027432;28;20561;-77
2023/04/24 10:53:29;;;;;;;6.57;4.25;;;;;;;25.75;24.90;94448.91;5026203;28;20119;-78
2023/04/24 10:56:03;;;;;;;6.32;4.50;;;;;;;25.58;24.84;94433.16;5026038;28;20481;-78
2023/04/24 10:58:46;;;;;;;5.72;4.28;;;;;;;25.46;25.07;94439.59;5025520;28;20021;-78
2023/04/24 11:01:37;;;;;;;6.78;3.90;;;;;;;25.34;24.69;94439.09;5009647;28;20042;-78
2023/04/24 11:04:03;;;;;;;5.35;3.67;;;;;;;25.10;25.39;94442.97;5026989;28;20045;-78
2023/04/24 11:06:34;;;;;;;7.70;4.10;;;;;;;24.95;25.49;94440.72;5026794;28;20029;-78
2023/04/24 11:09:12;;;;;;;4.72;3.97;;;;;;;24.78;25.31;94446.69;5025859;28;20044;-78
2023/04/24 11:11:40;;;;;;;6.28;3.80;;;;;;;24.57;25.73;94445.84;5025142;28;20095;-78
2023/04/24 11:14:08;;;;;;;6.93;4.47;;;;;;;24.40;25.95;94448.97;5008461;28;20045;-78
2023/04/24 11:16:44;;;;;;;10.27;5.95;;;;;;;24.03;26.32;94498.38;5025493;28;20437;-78
2023/04/24 11:19:16;;;;;;;9.40;3.88;;;;;;;22.92;31.41;94509.16;5026212;28;20029;-78
2023/04/24 11:21:55;;;;;;;7.95;4.10;;;;;;;20.72;40.59;94514.94;5025097;28;20087;-79
2023/04/24 11:24:30;;;;;;;5.00;3.67;;;;;;;19.66;41.92;94512.31;5024889;28;20030;-79